Fort Chipewyan, Canada
Current Conditions -  °F | °C
As of 7:00 PM on Friday 19 Dec 2014 (Local Time) from CYPY Reporting Station
Scattered Clouds Scattered Clouds  
Wind Chill:   Ceiling: Unl
Heat Index: 16°   Visibility: 9mi
Dew Point: 14°   Wind: 12mph
Humidity: 93%   Direction: 110°ESE
Pressure: 29.71"   Gusts: 17mph
Location:  58.71°N, 111.15°W
Report Text: CYPY 200200Z AUTO 11010G15KT 9SM SCT140 M09/M10 A2971 RMK SLP080
Loading
Personal Weather Stations






























Interactive Weather Map New forecast layout! Learn more

10-Day Weather Forecast

Advertisements
Track Severe Weather on mobile